sensor_id;sensor_type;location;lat;lon;timestamp;P1;durP1;ratioP1;P2;durP2;ratioP2
20012;SDS011;76844;42.852;23.042;2024-03-08T00:02:08;8.43;;;3.75;;
20012;SDS011;76844;42.852;23.042;2024-03-08T00:04:38;8.77;;;3.17;;
20012;SDS011;76844;42.852;23.042;2024-03-08T00:07:09;2.80;;;2.50;;
20012;SDS011;76844;42.852;23.042;2024-03-08T00:09:39;3.38;;;2.10;;
20012;SDS011;76844;42.852;23.042;2024-03-08T00:12:08;4.95;;;2.60;;
20012;SDS011;76844;42.852;23.042;2024-03-08T00:14:38;3.83;;;2.42;;
20012;SDS011;76844;42.852;23.042;2024-03-08T00:17:08;4.10;;;2.30;;
20012;SDS011;76844;42.852;23.042;2024-03-08T00:19:38;2.97;;;2.20;;
20012;SDS011;76844;42.852;23.042;2024-03-08T00:22:10;3.03;;;2.40;;
20012;SDS011;76844;42.852;23.042;2024-03-08T00:24:40;4.07;;;3.10;;
20012;SDS011;76844;42.852;23.042;2024-03-08T00:27:09;3.60;;;3.13;;
20012;SDS011;76844;42.852;23.042;2024-03-08T00:29:39;10.15;;;6.05;;
20012;SDS011;76844;42.852;23.042;2024-03-08T00:32:09;12.02;;;9.90;;
20012;SDS011;76844;42.852;23.042;2024-03-08T00:34:39;10.60;;;3.80;;
20012;SDS011;76844;42.852;23.042;2024-03-08T00:37:08;5.90;;;3.20;;
20012;SDS011;76844;42.852;23.042;2024-03-08T00:39:39;10.00;;;4.63;;
20012;SDS011;76844;42.852;23.042;2024-03-08T00:42:09;12.50;;;4.13;;
20012;SDS011;76844;42.852;23.042;2024-03-08T00:44:40;16.25;;;5.70;;
20012;SDS011;76844;42.852;23.042;2024-03-08T00:47:09;13.57;;;5.05;;
20012;SDS011;76844;42.852;23.042;2024-03-08T00:49:40;19.15;;;5.32;;
20012;SDS011;76844;42.852;23.042;2024-03-08T00:52:11;14.45;;;4.60;;
20012;SDS011;76844;42.852;23.042;2024-03-08T00:54:41;10.88;;;3.80;;
20012;SDS011;76844;42.852;23.042;2024-03-08T00:57:11;12.45;;;3.78;;
20012;SDS011;76844;42.852;23.042;2024-03-08T00:59:41;14.23;;;4.00;;
20012;SDS011;76844;42.852;23.042;2024-03-08T01:02:11;13.75;;;4.03;;
20012;SDS011;76844;42.852;23.042;2024-03-08T01:04:40;8.07;;;3.63;;
20012;SDS011;76844;42.852;23.042;2024-03-08T01:07:09;21.10;;;10.68;;
20012;SDS011;76844;42.852;23.042;2024-03-08T01:09:41;19.42;;;11.63;;
20012;SDS011;76844;42.852;23.042;2024-03-08T01:12:10;6.60;;;5.22;;
20012;SDS011;76844;42.852;23.042;2024-03-08T01:14:40;15.02;;;10.77;;
20012;SDS011;76844;42.852;23.042;2024-03-08T01:17:09;23.83;;;16.80;;
20012;SDS011;76844;42.852;23.042;2024-03-08T01:19:40;19.35;;;12.05;;
20012;SDS011;76844;42.852;23.042;2024-03-08T01:22:14;21.37;;;10.33;;
20012;SDS011;76844;42.852;23.042;2024-03-08T01:24:43;18.33;;;9.98;;
20012;SDS011;76844;42.852;23.042;2024-03-08T01:27:13;19.48;;;10.52;;
20012;SDS011;76844;42.852;23.042;2024-03-08T01:29:43;20.70;;;10.60;;
20012;SDS011;76844;42.852;23.042;2024-03-08T01:32:13;15.63;;;8.30;;
20012;SDS011;76844;42.852;23.042;2024-03-08T01:34:43;22.55;;;11.48;;
20012;SDS011;76844;42.852;23.042;2024-03-08T01:37:14;18.75;;;10.40;;
20012;SDS011;76844;42.852;23.042;2024-03-08T01:39:43;15.82;;;8.93;;
20012;SDS011;76844;42.852;23.042;2024-03-08T01:42:12;13.20;;;7.68;;
20012;SDS011;76844;42.852;23.042;2024-03-08T01:44:44;9.90;;;5.93;;
20012;SDS011;76844;42.852;23.042;2024-03-08T01:47:14;9.38;;;5.35;;
20012;SDS011;76844;42.852;23.042;2024-03-08T01:49:44;8.25;;;5.00;;
20012;SDS011;76844;42.852;23.042;2024-03-08T01:52:15;7.38;;;4.65;;
20012;SDS011;76844;42.852;23.042;2024-03-08T01:54:46;8.77;;;4.80;;
20012;SDS011;76844;42.852;23.042;2024-03-08T01:57:15;8.70;;;5.90;;
20012;SDS011;76844;42.852;23.042;2024-03-08T01:59:45;7.07;;;4.75;;
20012;SDS011;76844;42.852;23.042;2024-03-08T02:02:16;5.15;;;4.50;;
20012;SDS011;76844;42.852;23.042;2024-03-08T02:04:48;6.38;;;4.35;;
20012;SDS011;76844;42.852;23.042;2024-03-08T02:07:22;11.15;;;5.93;;
20012;SDS011;76844;42.852;23.042;2024-03-08T02:09:51;11.13;;;6.05;;
20012;SDS011;76844;42.852;23.042;2024-03-08T02:12:21;18.13;;;8.63;;
20012;SDS011;76844;42.852;23.042;2024-03-08T02:14:51;13.50;;;6.05;;
20012;SDS011;76844;42.852;23.042;2024-03-08T02:17:23;12.50;;;6.22;;
20012;SDS011;76844;42.852;23.042;2024-03-08T02:19:53;7.15;;;4.03;;
20012;SDS011;76844;42.852;23.042;2024-03-08T02:22:28;11.40;;;5.50;;
20012;SDS011;76844;42.852;23.042;2024-03-08T02:24:59;18.38;;;6.40;;
20012;SDS011;76844;42.852;23.042;2024-03-08T02:27:30;20.05;;;10.85;;
20012;SDS011;76844;42.852;23.042;2024-03-08T02:30:00;16.70;;;7.95;;
20012;SDS011;76844;42.852;23.042;2024-03-08T02:32:30;14.20;;;6.20;;
20012;SDS011;76844;42.852;23.042;2024-03-08T02:35:00;7.68;;;3.22;;
20012;SDS011;76844;42.852;23.042;2024-03-08T02:37:31;2.58;;;2.20;;
20012;SDS011;76844;42.852;23.042;2024-03-08T02:40:01;10.07;;;4.93;;
20012;SDS011;76844;42.852;23.042;2024-03-08T02:42:31;10.38;;;5.97;;
20012;SDS011;76844;42.852;23.042;2024-03-08T02:45:00;14.52;;;7.70;;
20012;SDS011;76844;42.852;23.042;2024-03-08T02:47:30;15.07;;;7.22;;
20012;SDS011;76844;42.852;23.042;2024-03-08T02:49:59;26.73;;;12.43;;
20012;SDS011;76844;42.852;23.042;2024-03-08T02:52:28;20.77;;;11.10;;
20012;SDS011;76844;42.852;23.042;2024-03-08T02:54:59;11.52;;;6.55;;
20012;SDS011;76844;42.852;23.042;2024-03-08T02:57:29;10.40;;;4.88;;
20012;SDS011;76844;42.852;23.042;2024-03-08T02:59:58;8.82;;;3.50;;
20012;SDS011;76844;42.852;23.042;2024-03-08T03:02:30;4.53;;;2.00;;
20012;SDS011;76844;42.852;23.042;2024-03-08T03:04:59;1.92;;;1.42;;
20012;SDS011;76844;42.852;23.042;2024-03-08T03:10:03;2.63;;;2.10;;
20012;SDS011;76844;42.852;23.042;2024-03-08T03:12:34;2.40;;;1.98;;
20012;SDS011;76844;42.852;23.042;2024-03-08T03:15:03;3.42;;;1.60;;
20012;SDS011;76844;42.852;23.042;2024-03-08T03:17:34;2.95;;;2.13;;
20012;SDS011;76844;42.852;23.042;2024-03-08T03:20:04;4.40;;;2.85;;
20012;SDS011;76844;42.852;23.042;2024-03-08T03:22:40;4.72;;;3.28;;
20012;SDS011;76844;42.852;23.042;2024-03-08T03:25:19;6.45;;;3.90;;
20012;SDS011;76844;42.852;23.042;2024-03-08T03:27:52;7.72;;;4.47;;
20012;SDS011;76844;42.852;23.042;2024-03-08T04:41:12;10.20;;;7.45;;
20012;SDS011;76844;42.852;23.042;2024-03-08T04:43:42;18.50;;;11.35;;
20012;SDS011;76844;42.852;23.042;2024-03-08T04:46:12;13.30;;;7.88;;
20012;SDS011;76844;42.852;23.042;2024-03-08T04:48:41;11.82;;;8.32;;
20012;SDS011;76844;42.852;23.042;2024-03-08T04:51:11;13.57;;;8.82;;
20012;SDS011;76844;42.852;23.042;2024-03-08T04:53:40;16.17;;;10.80;;
20012;SDS011;76844;42.852;23.042;2024-03-08T04:56:10;13.35;;;9.80;;
20012;SDS011;76844;42.852;23.042;2024-03-08T04:58:41;13.70;;;7.50;;
20012;SDS011;76844;42.852;23.042;2024-03-08T05:01:11;10.98;;;6.55;;
20012;SDS011;76844;42.852;23.042;2024-03-08T05:03:40;12.02;;;9.10;;
20012;SDS011;76844;42.852;23.042;2024-03-08T05:06:10;9.50;;;6.40;;
20012;SDS011;76844;42.852;23.042;2024-03-08T05:08:39;16.92;;;9.43;;
20012;SDS011;76844;42.852;23.042;2024-03-08T05:11:09;10.23;;;6.70;;
20012;SDS011;76844;42.852;23.042;2024-03-08T05:13:43;10.70;;;6.40;;
20012;SDS011;76844;42.852;23.042;2024-03-08T05:16:13;12.52;;;6.28;;
20012;SDS011;76844;42.852;23.042;2024-03-08T05:18:43;10.57;;;6.30;;
20012;SDS011;76844;42.852;23.042;2024-03-08T05:21:14;7.53;;;4.93;;
20012;SDS011;76844;42.852;23.042;2024-03-08T05:26:17;7.22;;;4.90;;
20012;SDS011;76844;42.852;23.042;2024-03-08T05:28:48;11.75;;;5.72;;
20012;SDS011;76844;42.852;23.042;2024-03-08T05:31:18;7.68;;;5.10;;
20012;SDS011;76844;42.852;23.042;2024-03-08T05:33:49;9.27;;;5.00;;
20012;SDS011;76844;42.852;23.042;2024-03-08T05:36:21;6.13;;;3.72;;
20012;SDS011;76844;42.852;23.042;2024-03-08T05:38:51;7.82;;;5.15;;
20012;SDS011;76844;42.852;23.042;2024-03-08T05:41:21;7.47;;;4.88;;
20012;SDS011;76844;42.852;23.042;2024-03-08T05:43:54;4.43;;;3.60;;
20012;SDS011;76844;42.852;23.042;2024-03-08T05:46:23;11.35;;;7.22;;
20012;SDS011;76844;42.852;23.042;2024-03-08T05:48:53;7.13;;;4.88;;
20012;SDS011;76844;42.852;23.042;2024-03-08T05:51:23;5.45;;;4.53;;
20012;SDS011;76844;42.852;23.042;2024-03-08T05:53:54;4.75;;;3.80;;
20012;SDS011;76844;42.852;23.042;2024-03-08T05:56:24;5.65;;;4.03;;
20012;SDS011;76844;42.852;23.042;2024-03-08T05:58:55;5.38;;;4.57;;
20012;SDS011;76844;42.852;23.042;2024-03-08T06:01:25;6.15;;;5.10;;
20012;SDS011;76844;42.852;23.042;2024-03-08T06:03:55;8.32;;;5.28;;
20012;SDS011;76844;42.852;23.042;2024-03-08T06:06:26;10.82;;;6.30;;
20012;SDS011;76844;42.852;23.042;2024-03-08T06:08:56;12.88;;;8.57;;
20012;SDS011;76844;42.852;23.042;2024-03-08T06:11:27;12.55;;;10.15;;
20012;SDS011;76844;42.852;23.042;2024-03-08T06:13:59;4.88;;;3.65;;
20012;SDS011;76844;42.852;23.042;2024-03-08T06:16:29;8.68;;;6.10;;
20012;SDS011;76844;42.852;23.042;2024-03-08T06:19:01;10.95;;;7.95;;
20012;SDS011;76844;42.852;23.042;2024-03-08T06:21:31;14.15;;;7.80;;
20012;SDS011;76844;42.852;23.042;2024-03-08T06:24:01;12.88;;;7.32;;
20012;SDS011;76844;42.852;23.042;2024-03-08T06:26:30;15.05;;;5.55;;
20012;SDS011;76844;42.852;23.042;2024-03-08T06:29:05;11.32;;;5.68;;
20012;SDS011;76844;42.852;23.042;2024-03-08T06:31:35;9.68;;;5.35;;
20012;SDS011;76844;42.852;23.042;2024-03-08T06:34:06;16.42;;;9.25;;
20012;SDS011;76844;42.852;23.042;2024-03-08T06:36:37;25.52;;;14.55;;
20012;SDS011;76844;42.852;23.042;2024-03-08T06:39:07;18.98;;;10.82;;
20012;SDS011;76844;42.852;23.042;2024-03-08T06:41:38;7.78;;;5.20;;
20012;SDS011;76844;42.852;23.042;2024-03-08T06:44:09;12.10;;;7.57;;
20012;SDS011;76844;42.852;23.042;2024-03-08T06:46:39;15.82;;;9.55;;
20012;SDS011;76844;42.852;23.042;2024-03-08T06:49:08;22.33;;;9.45;;
20012;SDS011;76844;42.852;23.042;2024-03-08T06:51:38;25.88;;;14.50;;
20012;SDS011;76844;42.852;23.042;2024-03-08T06:54:08;24.00;;;12.73;;
20012;SDS011;76844;42.852;23.042;2024-03-08T06:56:38;30.52;;;16.52;;
20012;SDS011;76844;42.852;23.042;2024-03-08T06:59:09;11.32;;;7.13;;
20012;SDS011;76844;42.852;23.042;2024-03-08T07:01:40;19.73;;;11.35;;
20012;SDS011;76844;42.852;23.042;2024-03-08T07:04:09;22.80;;;12.25;;
20012;SDS011;76844;42.852;23.042;2024-03-08T07:06:39;18.05;;;10.23;;
20012;SDS011;76844;42.852;23.042;2024-03-08T07:09:09;12.15;;;8.07;;
20012;SDS011;76844;42.852;23.042;2024-03-08T07:11:39;12.52;;;7.30;;
20012;SDS011;76844;42.852;23.042;2024-03-08T07:14:14;11.90;;;7.10;;
20012;SDS011;76844;42.852;23.042;2024-03-08T07:16:44;13.75;;;8.50;;
20012;SDS011;76844;42.852;23.042;2024-03-08T07:19:14;12.95;;;7.07;;
20012;SDS011;76844;42.852;23.042;2024-03-08T07:21:44;15.82;;;9.45;;
20012;SDS011;76844;42.852;23.042;2024-03-08T07:24:15;15.20;;;9.23;;
20012;SDS011;76844;42.852;23.042;2024-03-08T07:27:05;13.93;;;8.40;;
20012;SDS011;76844;42.852;23.042;2024-03-08T07:29:38;31.60;;;16.67;;
20012;SDS011;76844;42.852;23.042;2024-03-08T07:32:08;21.42;;;12.07;;
20012;SDS011;76844;42.852;23.042;2024-03-08T07:34:48;11.27;;;7.38;;
20012;SDS011;76844;42.852;23.042;2024-03-08T07:37:18;13.90;;;7.82;;
20012;SDS011;76844;42.852;23.042;2024-03-08T07:39:47;13.13;;;7.00;;
20012;SDS011;76844;42.852;23.042;2024-03-08T07:42:18;11.95;;;6.60;;
20012;SDS011;76844;42.852;23.042;2024-03-08T07:44:51;18.90;;;11.85;;
20012;SDS011;76844;42.852;23.042;2024-03-08T07:47:22;18.43;;;9.20;;
20012;SDS011;76844;42.852;23.042;2024-03-08T07:49:53;14.77;;;8.30;;
20012;SDS011;76844;42.852;23.042;2024-03-08T07:52:27;13.48;;;8.32;;
20012;SDS011;76844;42.852;23.042;2024-03-08T07:54:56;10.38;;;7.10;;
20012;SDS011;76844;42.852;23.042;2024-03-08T07:57:28;16.50;;;8.38;;
20012;SDS011;76844;42.852;23.042;2024-03-08T07:59:59;10.55;;;7.88;;
20012;SDS011;76844;42.852;23.042;2024-03-08T08:02:34;6.20;;;4.45;;
20012;SDS011;76844;42.852;23.042;2024-03-08T08:05:06;12.02;;;7.50;;
20012;SDS011;76844;42.852;23.042;2024-03-08T08:07:37;18.17;;;8.20;;
20012;SDS011;76844;42.852;23.042;2024-03-08T08:10:09;10.30;;;6.35;;
20012;SDS011;76844;42.852;23.042;2024-03-08T08:12:45;9.63;;;6.47;;
20012;SDS011;76844;42.852;23.042;2024-03-08T08:15:17;12.43;;;7.32;;
20012;SDS011;76844;42.852;23.042;2024-03-08T08:17:47;12.38;;;6.30;;
20012;SDS011;76844;42.852;23.042;2024-03-08T08:20:17;9.63;;;6.55;;
20012;SDS011;76844;42.852;23.042;2024-03-08T08:22:46;8.90;;;4.88;;
20012;SDS011;76844;42.852;23.042;2024-03-08T08:25:17;12.48;;;7.97;;
20012;SDS011;76844;42.852;23.042;2024-03-08T08:27:47;6.38;;;3.75;;
20012;SDS011;76844;42.852;23.042;2024-03-08T08:30:19;5.05;;;4.00;;
20012;SDS011;76844;42.852;23.042;2024-03-08T08:32:49;5.38;;;3.20;;
20012;SDS011;76844;42.852;23.042;2024-03-08T08:35:19;8.07;;;4.88;;
20012;SDS011;76844;42.852;23.042;2024-03-08T08:37:50;6.18;;;4.18;;
20012;SDS011;76844;42.852;23.042;2024-03-08T08:40:20;5.22;;;4.28;;
20012;SDS011;76844;42.852;23.042;2024-03-08T08:42:51;3.95;;;3.53;;
20012;SDS011;76844;42.852;23.042;2024-03-08T08:45:23;5.50;;;4.10;;
20012;SDS011;76844;42.852;23.042;2024-03-08T08:47:53;4.45;;;3.42;;
20012;SDS011;76844;42.852;23.042;2024-03-08T08:50:23;8.43;;;6.40;;
20012;SDS011;76844;42.852;23.042;2024-03-08T08:52:55;3.90;;;3.45;;
20012;SDS011;76844;42.852;23.042;2024-03-08T08:55:27;5.05;;;3.42;;
20012;SDS011;76844;42.852;23.042;2024-03-08T08:57:58;3.90;;;3.40;;
20012;SDS011;76844;42.852;23.042;2024-03-08T09:00:30;4.97;;;3.33;;
20012;SDS011;76844;42.852;23.042;2024-03-08T09:03:00;4.82;;;3.42;;
20012;SDS011;76844;42.852;23.042;2024-03-08T09:05:30;8.55;;;3.95;;
20012;SDS011;76844;42.852;23.042;2024-03-08T09:08:05;9.77;;;3.25;;
20012;SDS011;76844;42.852;23.042;2024-03-08T09:10:36;7.78;;;3.85;;
20012;SDS011;76844;42.852;23.042;2024-03-08T09:13:06;5.18;;;3.03;;
20012;SDS011;76844;42.852;23.042;2024-03-08T09:15:49;6.72;;;4.10;;
20012;SDS011;76844;42.852;23.042;2024-03-08T09:18:20;6.43;;;4.20;;
20012;SDS011;76844;42.852;23.042;2024-03-08T09:20:51;5.53;;;3.17;;
20012;SDS011;76844;42.852;23.042;2024-03-08T09:23:21;5.32;;;3.40;;
20012;SDS011;76844;42.852;23.042;2024-03-08T09:25:51;5.03;;;3.65;;
20012;SDS011;76844;42.852;23.042;2024-03-08T09:28:20;4.80;;;3.55;;
20012;SDS011;76844;42.852;23.042;2024-03-08T09:30:51;5.47;;;3.40;;
20012;SDS011;76844;42.852;23.042;2024-03-08T09:33:26;4.07;;;3.20;;
20012;SDS011;76844;42.852;23.042;2024-03-08T09:35:58;4.20;;;3.25;;
20012;SDS011;76844;42.852;23.042;2024-03-08T09:38:30;7.13;;;4.57;;
20012;SDS011;76844;42.852;23.042;2024-03-08T09:40:59;3.40;;;3.00;;
20012;SDS011;76844;42.852;23.042;2024-03-08T09:43:31;5.25;;;3.30;;
20012;SDS011;76844;42.852;23.042;2024-03-08T09:46:03;4.72;;;3.80;;
20012;SDS011;76844;42.852;23.042;2024-03-08T09:48:37;4.13;;;3.03;;
20012;SDS011;76844;42.852;23.042;2024-03-08T09:51:09;4.15;;;3.13;;
20012;SDS011;76844;42.852;23.042;2024-03-08T09:53:42;5.60;;;4.30;;
20012;SDS011;76844;42.852;23.042;2024-03-08T09:56:13;5.50;;;3.28;;
20012;SDS011;76844;42.852;23.042;2024-03-08T09:58:44;13.18;;;8.48;;
20012;SDS011;76844;42.852;23.042;2024-03-08T10:01:43;7.25;;;5.47;;
20012;SDS011;76844;42.852;23.042;2024-03-08T10:04:13;6.63;;;4.63;;
20012;SDS011;76844;42.852;23.042;2024-03-08T10:06:45;5.80;;;4.35;;
20012;SDS011;76844;42.852;23.042;2024-03-08T10:09:15;4.93;;;3.70;;
20012;SDS011;76844;42.852;23.042;2024-03-08T10:11:44;4.72;;;3.35;;
20012;SDS011;76844;42.852;23.042;2024-03-08T10:14:16;6.60;;;4.68;;
20012;SDS011;76844;42.852;23.042;2024-03-08T10:16:48;8.93;;;4.38;;
20012;SDS011;76844;42.852;23.042;2024-03-08T10:19:18;5.30;;;3.63;;
20012;SDS011;76844;42.852;23.042;2024-03-08T10:21:52;7.55;;;3.50;;
20012;SDS011;76844;42.852;23.042;2024-03-08T10:24:23;4.85;;;3.28;;
20012;SDS011;76844;42.852;23.042;2024-03-08T10:26:55;5.65;;;3.55;;
20012;SDS011;76844;42.852;23.042;2024-03-08T10:29:29;46.75;;;33.92;;
20012;SDS011;76844;42.852;23.042;2024-03-08T10:32:01;30.35;;;23.33;;
20012;SDS011;76844;42.852;23.042;2024-03-08T10:34:33;9.60;;;8.40;;
20012;SDS011;76844;42.852;23.042;2024-03-08T10:37:04;4.65;;;3.00;;
20012;SDS011;76844;42.852;23.042;2024-03-08T10:39:38;3.08;;;2.22;;
20012;SDS011;76844;42.852;23.042;2024-03-08T10:42:16;5.65;;;3.42;;
20012;SDS011;76844;42.852;23.042;2024-03-08T10:44:49;7.32;;;5.32;;
20012;SDS011;76844;42.852;23.042;2024-03-08T10:47:30;5.77;;;3.90;;
20012;SDS011;76844;42.852;23.042;2024-03-08T10:50:08;7.43;;;3.50;;
20012;SDS011;76844;42.852;23.042;2024-03-08T10:52:41;4.30;;;3.00;;
20012;SDS011;76844;42.852;23.042;2024-03-08T10:55:12;8.38;;;3.50;;
20012;SDS011;76844;42.852;23.042;2024-03-08T10:57:43;5.60;;;3.42;;
20012;SDS011;76844;42.852;23.042;2024-03-08T11:00:13;4.22;;;3.22;;
20012;SDS011;76844;42.852;23.042;2024-03-08T11:02:48;9.32;;;2.30;;
20012;SDS011;76844;42.852;23.042;2024-03-08T11:05:30;3.33;;;1.80;;
20012;SDS011;76844;42.852;23.042;2024-03-08T11:08:03;7.18;;;2.70;;
20012;SDS011;76844;42.852;23.042;2024-03-08T11:10:48;5.13;;;2.33;;
20012;SDS011;76844;42.852;23.042;2024-03-08T11:16:05;9.25;;;5.72;;
20012;SDS011;76844;42.852;23.042;2024-03-08T11:18:39;5.30;;;2.55;;
20012;SDS011;76844;42.852;23.042;2024-03-08T11:21:09;3.95;;;2.38;;
20012;SDS011;76844;42.852;23.042;2024-03-08T11:23:41;5.57;;;2.63;;
20012;SDS011;76844;42.852;23.042;2024-03-08T11:26:18;9.75;;;3.38;;
20012;SDS011;76844;42.852;23.042;2024-03-08T11:28:48;7.53;;;3.58;;
20012;SDS011;76844;42.852;23.042;2024-03-08T11:31:23;6.70;;;2.90;;
20012;SDS011;76844;42.852;23.042;2024-03-08T11:33:57;5.90;;;3.03;;
20012;SDS011;76844;42.852;23.042;2024-03-08T11:36:27;10.65;;;3.50;;
20012;SDS011;76844;42.852;23.042;2024-03-08T11:39:03;5.47;;;3.10;;
20012;SDS011;76844;42.852;23.042;2024-03-08T11:41:42;6.85;;;2.47;;
20012;SDS011;76844;42.852;23.042;2024-03-08T11:44:14;2.42;;;1.95;;
20012;SDS011;76844;42.852;23.042;2024-03-08T11:46:45;2.50;;;2.22;;
20012;SDS011;76844;42.852;23.042;2024-03-08T11:49:17;2.90;;;2.55;;
20012;SDS011;76844;42.852;23.042;2024-03-08T11:51:49;4.18;;;1.75;;
20012;SDS011;76844;42.852;23.042;2024-03-08T11:54:21;7.75;;;3.95;;
20012;SDS011;76844;42.852;23.042;2024-03-08T11:56:51;5.05;;;3.58;;
20012;SDS011;76844;42.852;23.042;2024-03-08T11:59:22;3.63;;;2.80;;
20012;SDS011;76844;42.852;23.042;2024-03-08T12:02:00;10.20;;;2.17;;
20012;SDS011;76844;42.852;23.042;2024-03-08T12:04:32;5.53;;;2.35;;
20012;SDS011;76844;42.852;23.042;2024-03-08T12:09:40;7.65;;;2.10;;
20012;SDS011;76844;42.852;23.042;2024-03-08T12:12:13;8.88;;;2.17;;
20012;SDS011;76844;42.852;23.042;2024-03-08T12:14:45;6.97;;;1.77;;
20012;SDS011;76844;42.852;23.042;2024-03-08T12:17:15;6.30;;;2.40;;
20012;SDS011;76844;42.852;23.042;2024-03-08T12:19:47;6.03;;;4.68;;
20012;SDS011;76844;42.852;23.042;2024-03-08T12:22:17;6.53;;;1.80;;
20012;SDS011;76844;42.852;23.042;2024-03-08T12:25:02;5.32;;;1.92;;
20012;SDS011;76844;42.852;23.042;2024-03-08T12:27:38;4.68;;;1.35;;
20012;SDS011;76844;42.852;23.042;2024-03-08T12:30:19;5.43;;;3.80;;
20012;SDS011;76844;42.852;23.042;2024-03-08T12:32:53;9.57;;;5.10;;
20012;SDS011;76844;42.852;23.042;2024-03-08T12:35:27;3.05;;;1.58;;
20012;SDS011;76844;42.852;23.042;2024-03-08T12:38:00;12.20;;;6.13;;
20012;SDS011;76844;42.852;23.042;2024-03-08T12:40:30;10.05;;;3.35;;
20012;SDS011;76844;42.852;23.042;2024-03-08T12:43:08;3.17;;;2.85;;
20012;SDS011;76844;42.852;23.042;2024-03-08T12:45:37;3.97;;;2.10;;
20012;SDS011;76844;42.852;23.042;2024-03-08T12:48:12;1.70;;;1.60;;
20012;SDS011;76844;42.852;23.042;2024-03-08T12:50:46;3.22;;;1.70;;
20012;SDS011;76844;42.852;23.042;2024-03-08T12:53:18;3.45;;;2.88;;
20012;SDS011;76844;42.852;23.042;2024-03-08T12:55:48;8.18;;;2.15;;
20012;SDS011;76844;42.852;23.042;2024-03-08T12:58:20;4.07;;;1.83;;
20012;SDS011;76844;42.852;23.042;2024-03-08T13:00:49;3.28;;;1.83;;
20012;SDS011;76844;42.852;23.042;2024-03-08T13:03:20;5.80;;;1.88;;
20012;SDS011;76844;42.852;23.042;2024-03-08T13:05:53;3.97;;;1.55;;
20012;SDS011;76844;42.852;23.042;2024-03-08T13:10:56;7.18;;;1.58;;
20012;SDS011;76844;42.852;23.042;2024-03-08T13:13:26;3.88;;;1.40;;
20012;SDS011;76844;42.852;23.042;2024-03-08T13:15:57;5.05;;;1.40;;
20012;SDS011;76844;42.852;23.042;2024-03-08T13:18:28;4.22;;;1.33;;
20012;SDS011;76844;42.852;23.042;2024-03-08T13:21:00;7.22;;;1.70;;
20012;SDS011;76844;42.852;23.042;2024-03-08T13:23:33;6.22;;;2.08;;
20012;SDS011;76844;42.852;23.042;2024-03-08T13:37:33;4.97;;;3.08;;
20012;SDS011;76844;42.852;23.042;2024-03-08T13:40:03;8.70;;;3.28;;
20012;SDS011;76844;42.852;23.042;2024-03-08T13:42:33;6.57;;;3.85;;
20012;SDS011;76844;42.852;23.042;2024-03-08T13:45:03;11.02;;;5.15;;
20012;SDS011;76844;42.852;23.042;2024-03-08T13:47:34;14.30;;;6.03;;
20012;SDS011;76844;42.852;23.042;2024-03-08T13:50:04;8.13;;;4.47;;
20012;SDS011;76844;42.852;23.042;2024-03-08T13:52:41;3.72;;;2.10;;
20012;SDS011;76844;42.852;23.042;2024-03-08T13:55:11;3.72;;;2.63;;
20012;SDS011;76844;42.852;23.042;2024-03-08T13:57:43;7.63;;;3.35;;
20012;SDS011;76844;42.852;23.042;2024-03-08T14:00:13;5.43;;;3.28;;
20012;SDS011;76844;42.852;23.042;2024-03-08T14:02:44;12.23;;;3.20;;
20012;SDS011;76844;42.852;23.042;2024-03-08T14:05:13;8.07;;;3.10;;
20012;SDS011;76844;42.852;23.042;2024-03-08T14:07:45;8.13;;;3.75;;
20012;SDS011;76844;42.852;23.042;2024-03-08T14:10:17;5.03;;;2.92;;
20012;SDS011;76844;42.852;23.042;2024-03-08T14:12:50;5.65;;;3.10;;
20012;SDS011;76844;42.852;23.042;2024-03-08T14:15:19;7.32;;;3.60;;
20012;SDS011;76844;42.852;23.042;2024-03-08T14:17:53;6.22;;;3.70;;
20012;SDS011;76844;42.852;23.042;2024-03-08T14:20:23;12.00;;;4.53;;
20012;SDS011;76844;42.852;23.042;2024-03-08T14:22:54;15.98;;;4.20;;
20012;SDS011;76844;42.852;23.042;2024-03-08T14:25:24;8.57;;;3.25;;
20012;SDS011;76844;42.852;23.042;2024-03-08T14:27:57;6.10;;;2.50;;
20012;SDS011;76844;42.852;23.042;2024-03-08T14:30:31;6.90;;;3.70;;
20012;SDS011;76844;42.852;23.042;2024-03-08T14:33:03;13.93;;;3.90;;
20012;SDS011;76844;42.852;23.042;2024-03-08T14:35:37;18.55;;;4.90;;
20012;SDS011;76844;42.852;23.042;2024-03-08T14:38:08;16.52;;;7.30;;
20012;SDS011;76844;42.852;23.042;2024-03-08T14:40:38;20.17;;;9.60;;
20012;SDS011;76844;42.852;23.042;2024-03-08T14:43:08;21.65;;;9.20;;
20012;SDS011;76844;42.852;23.042;2024-03-08T14:45:38;27.25;;;12.27;;
20012;SDS011;76844;42.852;23.042;2024-03-08T14:48:08;9.80;;;6.43;;
20012;SDS011;76844;42.852;23.042;2024-03-08T14:50:39;17.70;;;8.65;;
20012;SDS011;76844;42.852;23.042;2024-03-08T14:53:12;22.20;;;9.25;;
20012;SDS011;76844;42.852;23.042;2024-03-08T14:55:43;12.90;;;6.38;;
20012;SDS011;76844;42.852;23.042;2024-03-08T14:58:14;44.45;;;10.23;;
20012;SDS011;76844;42.852;23.042;2024-03-08T15:00:44;26.20;;;7.93;;
20012;SDS011;76844;42.852;23.042;2024-03-08T15:03:17;32.28;;;12.90;;
20012;SDS011;76844;42.852;23.042;2024-03-08T15:05:47;26.75;;;12.05;;
20012;SDS011;76844;42.852;23.042;2024-03-08T15:08:19;20.35;;;8.82;;
20012;SDS011;76844;42.852;23.042;2024-03-08T15:10:51;14.60;;;6.18;;
20012;SDS011;76844;42.852;23.042;2024-03-08T15:13:22;11.88;;;6.43;;
20012;SDS011;76844;42.852;23.042;2024-03-08T15:15:55;23.77;;;9.63;;
20012;SDS011;76844;42.852;23.042;2024-03-08T15:18:25;21.55;;;9.25;;
20012;SDS011;76844;42.852;23.042;2024-03-08T15:20:58;18.48;;;7.65;;
20012;SDS011;76844;42.852;23.042;2024-03-08T15:23:28;20.25;;;8.23;;
20012;SDS011;76844;42.852;23.042;2024-03-08T15:25:58;26.42;;;9.65;;
20012;SDS011;76844;42.852;23.042;2024-03-08T15:28:29;27.75;;;10.48;;
20012;SDS011;76844;42.852;23.042;2024-03-08T15:31:04;10.93;;;5.63;;
20012;SDS011;76844;42.852;23.042;2024-03-08T15:33:35;16.63;;;5.82;;
20012;SDS011;76844;42.852;23.042;2024-03-08T15:36:12;14.38;;;5.43;;
20012;SDS011;76844;42.852;23.042;2024-03-08T15:38:44;10.80;;;5.40;;
20012;SDS011;76844;42.852;23.042;2024-03-08T15:41:18;17.17;;;6.40;;
20012;SDS011;76844;42.852;23.042;2024-03-08T15:43:48;15.38;;;6.13;;
20012;SDS011;76844;42.852;23.042;2024-03-08T15:46:18;13.68;;;4.72;;
20012;SDS011;76844;42.852;23.042;2024-03-08T15:48:50;19.95;;;5.70;;
20012;SDS011;76844;42.852;23.042;2024-03-08T15:51:20;16.40;;;6.25;;
20012;SDS011;76844;42.852;23.042;2024-03-08T15:53:51;11.45;;;5.05;;
20012;SDS011;76844;42.852;23.042;2024-03-08T15:58:53;40.85;;;16.25;;
20012;SDS011;76844;42.852;23.042;2024-03-08T16:01:23;22.13;;;8.20;;
20012;SDS011;76844;42.852;23.042;2024-03-08T16:03:53;16.75;;;7.55;;
20012;SDS011;76844;42.852;23.042;2024-03-08T16:06:25;15.30;;;7.57;;
20012;SDS011;76844;42.852;23.042;2024-03-08T16:08:57;8.75;;;4.75;;
20012;SDS011;76844;42.852;23.042;2024-03-08T16:11:27;9.98;;;4.70;;
20012;SDS011;76844;42.852;23.042;2024-03-08T16:14:00;8.25;;;4.70;;
20012;SDS011;76844;42.852;23.042;2024-03-08T16:16:30;19.15;;;5.53;;
20012;SDS011;76844;42.852;23.042;2024-03-08T16:19:00;10.80;;;7.15;;
20012;SDS011;76844;42.852;23.042;2024-03-08T16:21:34;7.80;;;5.25;;
20012;SDS011;76844;42.852;23.042;2024-03-08T16:24:05;9.15;;;5.10;;
20012;SDS011;76844;42.852;23.042;2024-03-08T16:26:39;11.30;;;7.57;;
20012;SDS011;76844;42.852;23.042;2024-03-08T16:29:09;7.88;;;6.00;;
20012;SDS011;76844;42.852;23.042;2024-03-08T16:31:40;12.32;;;7.60;;